Aviation Digital Data Service (ADDS)

Output produced by METARs form (0846 UTC 22 July 2018)
found at http://aviationweather.gov/adds/metars/
 
KOEO 220835Z AUTO 01004KT 10SM OVC011 17/16 A3012 RMK AO2 T01670155